sensor_id;sensor_type;location;lat;lon;timestamp;pressure;altitude;pressure_sealevel;temperature;humidity
53023;BME280;38913;44.338;11.206;2023-04-08T00:02:18;99160.94;;;9.11;nan
53023;BME280;38913;44.338;11.206;2023-04-08T00:04:44;99158.53;;;9.09;nan
53023;BME280;38913;44.338;11.206;2023-04-08T00:07:09;99187.59;;;9.15;nan
53023;BME280;38913;44.338;11.206;2023-04-08T00:09:35;99225.38;;;9.32;nan
53023;BME280;38913;44.338;11.206;2023-04-08T00:12:00;99252.84;;;9.18;nan
53023;BME280;38913;44.338;11.206;2023-04-08T00:14:26;99228.44;;;9.10;nan
53023;BME280;38913;44.338;11.206;2023-04-08T00:16:51;99224.91;;;9.23;nan
53023;BME280;38913;44.338;11.206;2023-04-08T00:19:17;99288.63;;;9.37;nan
53023;BME280;38913;44.338;11.206;2023-04-08T00:21:42;99233.63;;;8.99;nan
53023;BME280;38913;44.338;11.206;2023-04-08T00:24:08;99050.22;;;8.58;nan
53023;BME280;38913;44.338;11.206;2023-04-08T00:26:33;99049.59;;;8.93;nan
53023;BME280;38913;44.338;11.206;2023-04-08T00:28:58;99217.59;;;9.26;nan
53023;BME280;38913;44.338;11.206;2023-04-08T00:31:24;99274.97;;;9.47;nan
53023;BME280;38913;44.338;11.206;2023-04-08T00:33:49;99306.59;;;9.59;nan
53023;BME280;38913;44.338;11.206;2023-04-08T00:36:15;99345.91;;;9.54;nan
53023;BME280;38913;44.338;11.206;2023-04-08T00:38:40;99350.31;;;9.35;nan
53023;BME280;38913;44.338;11.206;2023-04-08T00:41:06;99218.81;;;9.23;nan
53023;BME280;38913;44.338;11.206;2023-04-08T00:43:31;99206.66;;;9.10;nan
53023;BME280;38913;44.338;11.206;2023-04-08T00:45:56;99191.22;;;9.32;nan
53023;BME280;38913;44.338;11.206;2023-04-08T00:48:22;99212.13;;;9.27;nan
53023;BME280;38913;44.338;11.206;2023-04-08T00:50:47;99126.13;;;8.78;nan
53023;BME280;38913;44.338;11.206;2023-04-08T00:53:17;99062.97;;;8.73;nan
53023;BME280;38913;44.338;11.206;2023-04-08T00:55:43;99134.44;;;9.13;nan
53023;BME280;38913;44.338;11.206;2023-04-08T00:58:08;99194.81;;;9.19;nan
53023;BME280;38913;44.338;11.206;2023-04-08T01:00:35;99191.66;;;9.10;nan
53023;BME280;38913;44.338;11.206;2023-04-08T01:06:31;99217.72;;;9.12;nan
53023;BME280;38913;44.338;11.206;2023-04-08T01:08:58;99258.81;;;9.25;nan
53023;BME280;38913;44.338;11.206;2023-04-08T01:11:26;99283.44;;;9.12;nan
53023;BME280;38913;44.338;11.206;2023-04-08T01:13:54;99256.03;;;9.01;nan
53023;BME280;38913;44.338;11.206;2023-04-08T01:16:21;99237.84;;;9.00;nan
53023;BME280;38913;44.338;11.206;2023-04-08T01:18:49;99156.72;;;8.91;nan
53023;BME280;38913;44.338;11.206;2023-04-08T01:21:17;99119.19;;;8.21;nan
53023;BME280;38913;44.338;11.206;2023-04-08T01:23:53;98869.78;;;8.47;nan
53023;BME280;38913;44.338;11.206;2023-04-08T01:26:25;99053.75;;;9.01;nan
53023;BME280;38913;44.338;11.206;2023-04-08T01:28:52;99148.75;;;8.79;nan
53023;BME280;38913;44.338;11.206;2023-04-08T01:31:21;99071.69;;;8.86;nan
53023;BME280;38913;44.338;11.206;2023-04-08T01:33:48;99051.53;;;8.98;nan
53023;BME280;38913;44.338;11.206;2023-04-08T01:36:16;99054.34;;;8.85;nan
53023;BME280;38913;44.338;11.206;2023-04-08T01:38:42;99005.91;;;8.80;nan
53023;BME280;38913;44.338;11.206;2023-04-08T01:41:09;99100.00;;;8.83;nan
53023;BME280;38913;44.338;11.206;2023-04-08T01:43:35;98996.16;;;8.13;nan
53023;BME280;38913;44.338;11.206;2023-04-08T01:46:03;98871.91;;;8.38;nan
53023;BME280;38913;44.338;11.206;2023-04-08T01:48:30;98730.88;;;8.33;nan
53023;BME280;38913;44.338;11.206;2023-04-08T01:50:56;98679.28;;;8.03;nan
53023;BME280;38913;44.338;11.206;2023-04-08T01:53:22;98112.03;;;7.73;nan
53023;BME280;38913;44.338;11.206;2023-04-08T01:55:51;97878.44;;;7.92;nan
53023;BME280;38913;44.338;11.206;2023-04-08T01:58:20;98209.94;;;8.60;nan
53023;BME280;38913;44.338;11.206;2023-04-08T02:00:47;98486.06;;;8.33;nan
53023;BME280;38913;44.338;11.206;2023-04-08T02:03:13;98388.97;;;8.21;nan
53023;BME280;38913;44.338;11.206;2023-04-08T02:05:41;98399.63;;;8.43;nan
53023;BME280;38913;44.338;11.206;2023-04-08T02:08:06;98384.06;;;8.24;nan
53023;BME280;38913;44.338;11.206;2023-04-08T02:10:32;98472.03;;;8.15;nan
53023;BME280;38913;44.338;11.206;2023-04-08T02:12:57;98463.72;;;8.18;nan
53023;BME280;38913;44.338;11.206;2023-04-08T02:15:25;98223.91;;;7.85;nan
53023;BME280;38913;44.338;11.206;2023-04-08T02:17:59;97908.25;;;7.46;nan
53023;BME280;38913;44.338;11.206;2023-04-08T02:20:37;97776.44;;;7.46;nan
53023;BME280;38913;44.338;11.206;2023-04-08T02:25:35;98092.63;;;8.26;nan
53023;BME280;38913;44.338;11.206;2023-04-08T02:28:05;98202.00;;;7.91;nan
53023;BME280;38913;44.338;11.206;2023-04-08T02:30:35;98181.41;;;8.17;nan
53023;BME280;38913;44.338;11.206;2023-04-08T02:33:03;98201.31;;;8.13;nan
53023;BME280;38913;44.338;11.206;2023-04-08T02:35:29;98163.75;;;7.95;nan
53023;BME280;38913;44.338;11.206;2023-04-08T02:37:55;98025.16;;;8.04;nan
53023;BME280;38913;44.338;11.206;2023-04-08T02:40:28;97928.72;;;7.89;nan
53023;BME280;38913;44.338;11.206;2023-04-08T02:42:54;97921.72;;;7.72;nan
53023;BME280;38913;44.338;11.206;2023-04-08T02:45:20;97806.38;;;7.50;nan
53023;BME280;38913;44.338;11.206;2023-04-08T02:47:46;97661.47;;;7.77;nan
53023;BME280;38913;44.338;11.206;2023-04-08T02:50:12;97705.00;;;8.06;nan
53023;BME280;38913;44.338;11.206;2023-04-08T02:52:37;97886.78;;;8.11;nan
53023;BME280;38913;44.338;11.206;2023-04-08T02:55:04;97919.16;;;8.00;nan
53023;BME280;38913;44.338;11.206;2023-04-08T02:57:31;97856.66;;;8.14;nan
53023;BME280;38913;44.338;11.206;2023-04-08T02:59:56;97910.13;;;7.91;nan
53023;BME280;38913;44.338;11.206;2023-04-08T03:02:22;97792.91;;;7.86;nan
53023;BME280;38913;44.338;11.206;2023-04-08T03:04:47;97722.88;;;7.59;nan
53023;BME280;38913;44.338;11.206;2023-04-08T03:07:13;97686.34;;;8.02;nan
53023;BME280;38913;44.338;11.206;2023-04-08T03:09:38;97796.66;;;7.95;nan
53023;BME280;38913;44.338;11.206;2023-04-08T03:12:04;97765.78;;;8.02;nan
53023;BME280;38913;44.338;11.206;2023-04-08T03:14:29;97765.19;;;7.95;nan
53023;BME280;38913;44.338;11.206;2023-04-08T03:16:54;97739.69;;;8.13;nan
53023;BME280;38913;44.338;11.206;2023-04-08T03:19:20;97719.84;;;7.95;nan
53023;BME280;38913;44.338;11.206;2023-04-08T03:21:45;97740.59;;;8.01;nan
53023;BME280;38913;44.338;11.206;2023-04-08T03:24:11;97776.34;;;8.08;nan
53023;BME280;38913;44.338;11.206;2023-04-08T03:26:37;97720.81;;;7.61;nan
53023;BME280;38913;44.338;11.206;2023-04-08T03:29:02;97758.09;;;8.18;nan
53023;BME280;38913;44.338;11.206;2023-04-08T03:31:28;97843.06;;;7.72;nan
53023;BME280;38913;44.338;11.206;2023-04-08T03:33:53;97874.94;;;7.64;nan
53023;BME280;38913;44.338;11.206;2023-04-08T03:36:18;97801.38;;;7.71;nan
53023;BME280;38913;44.338;11.206;2023-04-08T03:38:44;97920.66;;;8.13;nan
53023;BME280;38913;44.338;11.206;2023-04-08T03:41:09;97791.44;;;7.51;nan
53023;BME280;38913;44.338;11.206;2023-04-08T03:43:35;97748.59;;;7.62;nan
53023;BME280;38913;44.338;11.206;2023-04-08T03:46:01;97778.09;;;7.74;nan
53023;BME280;38913;44.338;11.206;2023-04-08T03:48:26;97813.50;;;7.99;nan
53023;BME280;38913;44.338;11.206;2023-04-08T03:50:52;97855.81;;;7.86;nan
53023;BME280;38913;44.338;11.206;2023-04-08T03:53:17;97814.31;;;7.78;nan
53023;BME280;38913;44.338;11.206;2023-04-08T03:55:43;97804.81;;;7.71;nan
53023;BME280;38913;44.338;11.206;2023-04-08T03:58:08;97773.81;;;7.24;nan
53023;BME280;38913;44.338;11.206;2023-04-08T04:00:34;97564.72;;;7.75;nan
53023;BME280;38913;44.338;11.206;2023-04-08T04:03:00;97726.84;;;8.17;nan
53023;BME280;38913;44.338;11.206;2023-04-08T04:05:26;97860.19;;;8.25;nan
53023;BME280;38913;44.338;11.206;2023-04-08T04:07:51;97946.75;;;8.25;nan
53023;BME280;38913;44.338;11.206;2023-04-08T04:10:17;97853.19;;;7.86;nan
53023;BME280;38913;44.338;11.206;2023-04-08T04:12:42;97734.13;;;7.82;nan
53023;BME280;38913;44.338;11.206;2023-04-08T04:15:09;97663.06;;;7.78;nan
53023;BME280;38913;44.338;11.206;2023-04-08T04:17:34;97650.63;;;7.96;nan
53023;BME280;38913;44.338;11.206;2023-04-08T04:20:03;97691.53;;;7.97;nan
53023;BME280;38913;44.338;11.206;2023-04-08T04:22:28;97671.63;;;7.46;nan
53023;BME280;38913;44.338;11.206;2023-04-08T04:24:53;97591.72;;;7.43;nan
53023;BME280;38913;44.338;11.206;2023-04-08T04:27:19;97584.41;;;7.78;nan
53023;BME280;38913;44.338;11.206;2023-04-08T04:29:44;97614.59;;;7.81;nan
53023;BME280;38913;44.338;11.206;2023-04-08T04:32:09;97678.66;;;7.95;nan
53023;BME280;38913;44.338;11.206;2023-04-08T04:34:35;97734.66;;;8.11;nan
53023;BME280;38913;44.338;11.206;2023-04-08T04:37:00;97678.72;;;8.00;nan
53023;BME280;38913;44.338;11.206;2023-04-08T04:39:26;97725.97;;;8.06;nan
53023;BME280;38913;44.338;11.206;2023-04-08T04:41:51;97675.69;;;7.86;nan
53023;BME280;38913;44.338;11.206;2023-04-08T04:44:17;97647.03;;;7.47;nan
53023;BME280;38913;44.338;11.206;2023-04-08T04:46:42;97613.00;;;7.80;nan
53023;BME280;38913;44.338;11.206;2023-04-08T04:49:08;97620.16;;;7.90;nan
53023;BME280;38913;44.338;11.206;2023-04-08T04:51:33;97633.38;;;7.72;nan
53023;BME280;38913;44.338;11.206;2023-04-08T04:53:58;97626.28;;;7.68;nan
53023;BME280;38913;44.338;11.206;2023-04-08T04:56:24;97640.75;;;7.48;nan
53023;BME280;38913;44.338;11.206;2023-04-08T04:58:50;97634.13;;;7.40;nan
53023;BME280;38913;44.338;11.206;2023-04-08T05:01:15;97716.50;;;7.27;nan
53023;BME280;38913;44.338;11.206;2023-04-08T05:03:41;97790.03;;;7.43;nan
53023;BME280;38913;44.338;11.206;2023-04-08T05:06:06;97791.31;;;7.40;nan
53023;BME280;38913;44.338;11.206;2023-04-08T05:08:32;97770.41;;;7.45;nan
53023;BME280;38913;44.338;11.206;2023-04-08T05:10:57;97746.91;;;8.00;nan
53023;BME280;38913;44.338;11.206;2023-04-08T05:13:26;97734.97;;;7.87;nan
53023;BME280;38913;44.338;11.206;2023-04-08T05:15:52;97753.84;;;8.12;nan
53023;BME280;38913;44.338;11.206;2023-04-08T05:18:17;97770.75;;;7.99;nan
53023;BME280;38913;44.338;11.206;2023-04-08T05:20:42;97722.16;;;7.41;nan
53023;BME280;38913;44.338;11.206;2023-04-08T05:23:08;97812.53;;;8.11;nan
53023;BME280;38913;44.338;11.206;2023-04-08T05:25:33;97806.38;;;8.22;nan
53023;BME280;38913;44.338;11.206;2023-04-08T05:27:59;97817.22;;;8.31;nan
53023;BME280;38913;44.338;11.206;2023-04-08T05:30:25;97804.88;;;8.04;nan
53023;BME280;38913;44.338;11.206;2023-04-08T05:32:51;97803.41;;;8.41;nan
53023;BME280;38913;44.338;11.206;2023-04-08T05:35:16;97831.38;;;8.58;nan
53023;BME280;38913;44.338;11.206;2023-04-08T05:37:42;97845.72;;;8.77;nan
53023;BME280;38913;44.338;11.206;2023-04-08T05:40:07;97878.38;;;8.87;nan
53023;BME280;38913;44.338;11.206;2023-04-08T05:42:33;98008.22;;;9.29;nan
53023;BME280;38913;44.338;11.206;2023-04-08T05:44:58;98045.81;;;9.29;nan
53023;BME280;38913;44.338;11.206;2023-04-08T05:47:24;97997.69;;;8.96;nan
53023;BME280;38913;44.338;11.206;2023-04-08T05:49:49;97926.03;;;8.73;nan
53023;BME280;38913;44.338;11.206;2023-04-08T05:52:15;97963.81;;;9.00;nan
53023;BME280;38913;44.338;11.206;2023-04-08T05:54:43;98023.53;;;9.37;nan
53023;BME280;38913;44.338;11.206;2023-04-08T05:57:08;97964.47;;;8.85;nan
53023;BME280;38913;44.338;11.206;2023-04-08T05:59:34;98026.66;;;9.06;nan
53023;BME280;38913;44.338;11.206;2023-04-08T06:01:59;97946.06;;;8.79;nan
53023;BME280;38913;44.338;11.206;2023-04-08T06:04:25;97911.63;;;8.76;nan
53023;BME280;38913;44.338;11.206;2023-04-08T06:06:50;97938.97;;;9.07;nan
53023;BME280;38913;44.338;11.206;2023-04-08T06:09:16;97926.56;;;8.75;nan
53023;BME280;38913;44.338;11.206;2023-04-08T06:11:41;97896.59;;;8.71;nan
53023;BME280;38913;44.338;11.206;2023-04-08T06:14:07;97869.22;;;9.27;nan
53023;BME280;38913;44.338;11.206;2023-04-08T06:16:32;98047.00;;;9.82;nan
53023;BME280;38913;44.338;11.206;2023-04-08T06:18:57;98113.72;;;10.03;nan
53023;BME280;38913;44.338;11.206;2023-04-08T06:21:23;98297.34;;;10.28;nan
53023;BME280;38913;44.338;11.206;2023-04-08T06:23:48;98359.91;;;10.43;nan
53023;BME280;38913;44.338;11.206;2023-04-08T06:26:14;98621.31;;;11.88;nan
53023;BME280;38913;44.338;11.206;2023-04-08T06:28:40;99170.16;;;13.13;nan
53023;BME280;38913;44.338;11.206;2023-04-08T06:31:05;99265.63;;;14.01;nan
53023;BME280;38913;44.338;11.206;2023-04-08T06:33:31;99401.53;;;14.84;nan
53023;BME280;38913;44.338;11.206;2023-04-08T06:36:03;99604.19;;;16.52;nan
53023;BME280;38913;44.338;11.206;2023-04-08T06:38:29;99686.75;;;16.83;nan
53023;BME280;38913;44.338;11.206;2023-04-08T06:41:00;99777.56;;;17.45;nan
53023;BME280;38913;44.338;11.206;2023-04-08T06:43:25;99823.41;;;17.04;nan
53023;BME280;38913;44.338;11.206;2023-04-08T06:45:51;99826.56;;;17.55;nan
53023;BME280;38913;44.338;11.206;2023-04-08T06:48:17;99863.63;;;17.67;nan
53023;BME280;38913;44.338;11.206;2023-04-08T06:50:42;99866.59;;;17.70;nan
53023;BME280;38913;44.338;11.206;2023-04-08T06:53:08;99856.19;;;17.63;nan
53023;BME280;38913;44.338;11.206;2023-04-08T06:55:33;99873.81;;;17.80;nan
53023;BME280;38913;44.338;11.206;2023-04-08T06:57:59;99930.31;;;18.93;nan
53023;BME280;38913;44.338;11.206;2023-04-08T07:00:26;99931.81;;;20.38;nan
53023;BME280;38913;44.338;11.206;2023-04-08T07:02:51;99948.22;;;18.92;nan
53023;BME280;38913;44.338;11.206;2023-04-08T07:05:17;99924.97;;;18.56;nan
53023;BME280;38913;44.338;11.206;2023-04-08T07:07:42;99908.09;;;18.25;nan
53023;BME280;38913;44.338;11.206;2023-04-08T07:10:08;99906.63;;;17.86;nan
53023;BME280;38913;44.338;11.206;2023-04-08T07:12:33;99896.88;;;16.78;nan
53023;BME280;38913;44.338;11.206;2023-04-08T07:14:59;99912.59;;;17.12;nan
53023;BME280;38913;44.338;11.206;2023-04-08T07:17:24;99918.72;;;18.14;nan
53023;BME280;38913;44.338;11.206;2023-04-08T07:19:50;99928.13;;;17.26;nan
53023;BME280;38913;44.338;11.206;2023-04-08T07:22:16;99914.00;;;16.60;nan
53023;BME280;38913;44.338;11.206;2023-04-08T07:24:41;99910.56;;;15.30;nan
53023;BME280;38913;44.338;11.206;2023-04-08T07:27:09;99901.66;;;14.39;nan
53023;BME280;38913;44.338;11.206;2023-04-08T07:29:35;99869.81;;;13.81;nan
53023;BME280;38913;44.338;11.206;2023-04-08T07:32:00;99852.19;;;13.87;nan
53023;BME280;38913;44.338;11.206;2023-04-08T07:34:25;99851.50;;;13.91;nan
53023;BME280;38913;44.338;11.206;2023-04-08T07:36:51;99828.00;;;13.06;nan
53023;BME280;38913;44.338;11.206;2023-04-08T07:39:16;99860.16;;;13.75;nan
53023;BME280;38913;44.338;11.206;2023-04-08T07:41:41;99870.16;;;14.13;nan
53023;BME280;38913;44.338;11.206;2023-04-08T07:44:07;99888.56;;;15.13;nan
53023;BME280;38913;44.338;11.206;2023-04-08T07:46:36;99912.81;;;15.39;nan
53023;BME280;38913;44.338;11.206;2023-04-08T07:49:02;99912.06;;;15.04;nan
53023;BME280;38913;44.338;11.206;2023-04-08T07:51:28;99913.94;;;16.27;nan
53023;BME280;38913;44.338;11.206;2023-04-08T07:53:54;99932.84;;;16.31;nan
53023;BME280;38913;44.338;11.206;2023-04-08T07:56:19;99921.34;;;15.41;nan
53023;BME280;38913;44.338;11.206;2023-04-08T07:58:46;99931.34;;;15.33;nan
53023;BME280;38913;44.338;11.206;2023-04-08T08:01:20;99932.94;;;15.74;nan
53023;BME280;38913;44.338;11.206;2023-04-08T08:03:47;99952.66;;;16.18;nan
53023;BME280;38913;44.338;11.206;2023-04-08T08:06:12;99961.75;;;16.49;nan
53023;BME280;38913;44.338;11.206;2023-04-08T08:08:38;99954.75;;;15.93;nan
53023;BME280;38913;44.338;11.206;2023-04-08T08:11:04;99952.63;;;15.95;nan
53023;BME280;38913;44.338;11.206;2023-04-08T08:13:29;99994.28;;;20.02;nan
53023;BME280;38913;44.338;11.206;2023-04-08T08:15:54;100008.34;;;17.72;nan
53023;BME280;38913;44.338;11.206;2023-04-08T08:18:20;99997.69;;;17.77;nan
53023;BME280;38913;44.338;11.206;2023-04-08T08:20:45;99988.78;;;17.18;nan
53023;BME280;38913;44.338;11.206;2023-04-08T08:23:11;100029.44;;;21.30;nan
53023;BME280;38913;44.338;11.206;2023-04-08T08:25:36;100013.63;;;17.02;nan
53023;BME280;38913;44.338;11.206;2023-04-08T08:28:01;100016.94;;;20.75;nan
53023;BME280;38913;44.338;11.206;2023-04-08T08:30:27;100066.47;;;23.52;nan
53023;BME280;38913;44.338;11.206;2023-04-08T08:32:53;100100.25;;;24.47;nan
53023;BME280;38913;44.338;11.206;2023-04-08T08:35:18;100124.63;;;27.36;nan
53023;BME280;38913;44.338;11.206;2023-04-08T08:37:43;100148.66;;;23.19;nan
53023;BME280;38913;44.338;11.206;2023-04-08T08:40:09;100092.16;;;19.87;nan
53023;BME280;38913;44.338;11.206;2023-04-08T08:42:35;100138.81;;;24.28;nan
53023;BME280;38913;44.338;11.206;2023-04-08T08:45:02;100148.47;;;24.58;nan
53023;BME280;38913;44.338;11.206;2023-04-08T08:47:27;100152.06;;;24.39;nan
53023;BME280;38913;44.338;11.206;2023-04-08T08:49:53;100154.13;;;22.71;nan
53023;BME280;38913;44.338;11.206;2023-04-08T08:52:18;100144.47;;;24.83;nan
53023;BME280;38913;44.338;11.206;2023-04-08T08:54:44;100153.59;;;23.31;nan
53023;BME280;38913;44.338;11.206;2023-04-08T08:57:19;100152.19;;;21.23;nan
53023;BME280;38913;44.338;11.206;2023-04-08T08:59:45;100137.28;;;20.35;nan
53023;BME280;38913;44.338;11.206;2023-04-08T09:02:29;100104.41;;;19.05;nan
53023;BME280;38913;44.338;11.206;2023-04-08T09:05:03;100093.53;;;18.48;nan
53023;BME280;38913;44.338;11.206;2023-04-08T09:07:30;100086.50;;;17.23;nan
53023;BME280;38913;44.338;11.206;2023-04-08T09:09:58;100063.31;;;17.51;nan
53023;BME280;38913;44.338;11.206;2023-04-08T09:12:25;100046.53;;;17.94;nan
53023;BME280;38913;44.338;11.206;2023-04-08T09:18:21;100029.72;;;17.17;nan
53023;BME280;38913;44.338;11.206;2023-04-08T09:20:52;100031.25;;;16.80;nan
53023;BME280;38913;44.338;11.206;2023-04-08T09:23:17;100034.38;;;16.50;nan
53023;BME280;38913;44.338;11.206;2023-04-08T09:25:43;100040.97;;;16.47;nan
53023;BME280;38913;44.338;11.206;2023-04-08T09:28:18;100036.59;;;17.08;nan
53023;BME280;38913;44.338;11.206;2023-04-08T09:30:47;100038.47;;;17.07;nan
53023;BME280;38913;44.338;11.206;2023-04-08T09:33:12;100025.34;;;16.51;nan
53023;BME280;38913;44.338;11.206;2023-04-08T09:35:38;100029.94;;;17.10;nan
53023;BME280;38913;44.338;11.206;2023-04-08T09:38:03;100020.91;;;17.12;nan
53023;BME280;38913;44.338;11.206;2023-04-08T09:40:32;100040.38;;;16.90;nan
53023;BME280;38913;44.338;11.206;2023-04-08T09:43:04;100044.41;;;16.92;nan
53023;BME280;38913;44.338;11.206;2023-04-08T09:45:32;100049.41;;;16.89;nan
53023;BME280;38913;44.338;11.206;2023-04-08T09:50:56;100057.59;;;17.75;nan
53023;BME280;38913;44.338;11.206;2023-04-08T09:53:34;100053.19;;;17.20;nan
53023;BME280;38913;44.338;11.206;2023-04-08T09:56:06;100060.59;;;17.84;nan
53023;BME280;38913;44.338;11.206;2023-04-08T09:58:38;100061.22;;;17.58;nan
53023;BME280;38913;44.338;11.206;2023-04-08T10:01:06;100058.22;;;17.49;nan
53023;BME280;38913;44.338;11.206;2023-04-08T10:03:39;100055.63;;;17.55;nan
53023;BME280;38913;44.338;11.206;2023-04-08T10:06:10;100062.91;;;17.04;nan
53023;BME280;38913;44.338;11.206;2023-04-08T10:08:36;100063.78;;;17.15;nan
53023;BME280;38913;44.338;11.206;2023-04-08T10:11:02;100059.25;;;17.81;nan
53023;BME280;38913;44.338;11.206;2023-04-08T10:13:27;100054.19;;;18.23;nan
53023;BME280;38913;44.338;11.206;2023-04-08T10:18:41;100051.09;;;15.88;nan
53023;BME280;38913;44.338;11.206;2023-04-08T10:21:37;100059.84;;;16.06;nan
53023;BME280;38913;44.338;11.206;2023-04-08T10:24:06;100063.56;;;17.49;nan
53023;BME280;38913;44.338;11.206;2023-04-08T10:26:37;100066.16;;;18.15;nan
53023;BME280;38913;44.338;11.206;2023-04-08T10:31:44;100063.66;;;17.60;nan
53023;BME280;38913;44.338;11.206;2023-04-08T10:34:17;100068.06;;;18.99;nan
53023;BME280;38913;44.338;11.206;2023-04-08T10:43:23;100058.25;;;18.36;nan
53023;BME280;38913;44.338;11.206;2023-04-08T10:45:48;100054.94;;;18.08;nan
53023;BME280;38913;44.338;11.206;2023-04-08T10:48:20;100059.94;;;17.61;nan
53023;BME280;38913;44.338;11.206;2023-04-08T10:51:02;100064.56;;;18.19;nan
53023;BME280;38913;44.338;11.206;2023-04-08T10:53:29;100063.78;;;16.88;nan
53023;BME280;38913;44.338;11.206;2023-04-08T10:56:15;100064.09;;;18.32;nan
53023;BME280;38913;44.338;11.206;2023-04-08T10:58:54;100056.00;;;17.69;nan
53023;BME280;38913;44.338;11.206;2023-04-08T11:01:24;100064.06;;;16.91;nan
53023;BME280;38913;44.338;11.206;2023-04-08T11:03:50;100059.34;;;17.54;nan
53023;BME280;38913;44.338;11.206;2023-04-08T11:06:16;100069.03;;;15.81;nan
53023;BME280;38913;44.338;11.206;2023-04-08T11:08:42;100058.78;;;15.90;nan
53023;BME280;38913;44.338;11.206;2023-04-08T11:11:09;100064.38;;;15.54;nan
53023;BME280;38913;44.338;11.206;2023-04-08T11:13:37;100061.31;;;15.63;nan
53023;BME280;38913;44.338;11.206;2023-04-08T11:16:05;100055.38;;;16.74;nan
53023;BME280;38913;44.338;11.206;2023-04-08T11:18:33;100049.44;;;17.16;nan
53023;BME280;38913;44.338;11.206;2023-04-08T11:20:59;100040.44;;;17.93;nan
53023;BME280;38913;44.338;11.206;2023-04-08T11:23:26;100049.16;;;16.01;nan
53023;BME280;38913;44.338;11.206;2023-04-08T11:25:51;100043.56;;;16.42;nan
53023;BME280;38913;44.338;11.206;2023-04-08T11:28:20;100032.72;;;17.54;nan
53023;BME280;38913;44.338;11.206;2023-04-08T11:30:46;100033.44;;;17.44;nan
53023;BME280;38913;44.338;11.206;2023-04-08T11:33:13;100043.78;;;16.85;nan
53023;BME280;38913;44.338;11.206;2023-04-08T11:35:40;100035.59;;;16.64;nan
53023;BME280;38913;44.338;11.206;2023-04-08T11:38:07;100042.91;;;17.02;nan
53023;BME280;38913;44.338;11.206;2023-04-08T11:40:32;100033.47;;;17.16;nan
53023;BME280;38913;44.338;11.206;2023-04-08T11:42:58;100030.47;;;17.07;nan
53023;BME280;38913;44.338;11.206;2023-04-08T11:45:24;100022.97;;;16.77;nan
53023;BME280;38913;44.338;11.206;2023-04-08T11:47:51;100025.22;;;17.18;nan
53023;BME280;38913;44.338;11.206;2023-04-08T11:50:24;100023.31;;;17.46;nan
53023;BME280;38913;44.338;11.206;2023-04-08T11:52:51;100027.31;;;16.61;nan
53023;BME280;38913;44.338;11.206;2023-04-08T11:55:25;100029.50;;;17.19;nan
53023;BME280;38913;44.338;11.206;2023-04-08T11:57:51;100031.63;;;16.94;nan
53023;BME280;38913;44.338;11.206;2023-04-08T12:00:18;100038.47;;;17.07;nan
53023;BME280;38913;44.338;11.206;2023-04-08T12:02:44;100024.94;;;17.90;nan
53023;BME280;38913;44.338;11.206;2023-04-08T12:05:11;100028.81;;;18.10;nan
53023;BME280;38913;44.338;11.206;2023-04-08T12:07:36;100038.00;;;17.16;nan
53023;BME280;38913;44.338;11.206;2023-04-08T12:10:02;100031.78;;;16.82;nan
53023;BME280;38913;44.338;11.206;2023-04-08T12:19:11;100024.88;;;15.58;nan
53023;BME280;38913;44.338;11.206;2023-04-08T12:21:36;100028.91;;;15.95;nan
53023;BME280;38913;44.338;11.206;2023-04-08T12:24:02;100024.47;;;16.23;nan
53023;BME280;38913;44.338;11.206;2023-04-08T12:26:27;100017.97;;;16.86;nan
53023;BME280;38913;44.338;11.206;2023-04-08T12:28:53;100017.41;;;17.06;nan
53023;BME280;38913;44.338;11.206;2023-04-08T12:31:18;100019.56;;;17.42;nan
53023;BME280;38913;44.338;11.206;2023-04-08T12:33:43;100010.47;;;17.75;nan
53023;BME280;38913;44.338;11.206;2023-04-08T12:36:09;100011.09;;;17.50;nan
53023;BME280;38913;44.338;11.206;2023-04-08T12:38:34;100016.34;;;17.77;nan
53023;BME280;38913;44.338;11.206;2023-04-08T12:41:00;100019.44;;;17.64;nan
53023;BME280;38913;44.338;11.206;2023-04-08T12:43:25;100017.25;;;17.56;nan
53023;BME280;38913;44.338;11.206;2023-04-08T12:45:51;100013.22;;;17.15;nan
53023;BME280;38913;44.338;11.206;2023-04-08T12:48:16;100018.25;;;17.44;nan
53023;BME280;38913;44.338;11.206;2023-04-08T12:50:42;100015.56;;;17.39;nan
53023;BME280;38913;44.338;11.206;2023-04-08T12:53:07;100019.19;;;17.28;nan
53023;BME280;38913;44.338;11.206;2023-04-08T12:55:33;100013.63;;;17.67;nan
53023;BME280;38913;44.338;11.206;2023-04-08T12:57:58;100008.69;;;17.48;nan
53023;BME280;38913;44.338;11.206;2023-04-08T13:00:23;100012.53;;;16.97;nan
53023;BME280;38913;44.338;11.206;2023-04-08T13:02:50;100011.19;;;16.23;nan
53023;BME280;38913;44.338;11.206;2023-04-08T13:05:15;100009.25;;;15.79;nan
53023;BME280;38913;44.338;11.206;2023-04-08T13:07:41;100016.25;;;16.47;nan
53023;BME280;38913;44.338;11.206;2023-04-08T13:10:07;100003.84;;;16.58;nan
53023;BME280;38913;44.338;11.206;2023-04-08T13:12:33;100003.06;;;16.57;nan
53023;BME280;38913;44.338;11.206;2023-04-08T13:14:58;100035.28;;;16.38;nan
53023;BME280;38913;44.338;11.206;2023-04-08T13:17:25;100044.81;;;14.97;nan
53023;BME280;38913;44.338;11.206;2023-04-08T13:19:51;100045.59;;;14.28;nan
53023;BME280;38913;44.338;11.206;2023-04-08T13:22:17;100064.94;;;14.04;nan
53023;BME280;38913;44.338;11.206;2023-04-08T13:24:42;100054.78;;;13.53;nan
53023;BME280;38913;44.338;11.206;2023-04-08T13:27:08;100069.81;;;12.80;nan
53023;BME280;38913;44.338;11.206;2023-04-08T13:29:33;100053.25;;;13.03;nan
53023;BME280;38913;44.338;11.206;2023-04-08T13:31:58;100068.25;;;12.90;nan
53023;BME280;38913;44.338;11.206;2023-04-08T13:34:25;100064.50;;;13.29;nan
53023;BME280;38913;44.338;11.206;2023-04-08T13:36:50;100067.19;;;13.10;nan
53023;BME280;38913;44.338;11.206;2023-04-08T13:39:16;100062.97;;;12.90;nan
53023;BME280;38913;44.338;11.206;2023-04-08T13:41:41;100075.28;;;12.97;nan